createdAt,value
2023-01-08T00:02:18.968Z,101503.84
2023-01-08T00:04:49.885Z,101506.81
2023-01-08T00:07:22.847Z,101498.34
2023-01-08T00:09:53.392Z,101495.38
2023-01-08T00:12:24.014Z,101501.84
2023-01-08T00:14:57.864Z,101509.63
2023-01-08T00:17:29.091Z,101508.34
2023-01-08T00:20:02.028Z,101511.44
2023-01-08T00:22:32.830Z,101507.19
2023-01-08T00:25:03.721Z,101509.03
2023-01-08T00:27:34.152Z,101512.53
2023-01-08T00:30:05.092Z,101512.00
2023-01-08T00:32:37.102Z,101519.75
2023-01-08T00:35:16.313Z,101513.09
2023-01-08T00:37:46.564Z,101512.53
2023-01-08T00:40:20.063Z,101517.59
2023-01-08T00:42:51.573Z,101523.22
2023-01-08T00:45:22.043Z,101531.25
2023-01-08T00:47:53.051Z,101520.41
2023-01-08T00:50:23.477Z,101524.78
2023-01-08T00:52:54.475Z,101527.47
2023-01-08T00:55:25.065Z,101531.13
2023-01-08T00:57:55.515Z,101538.59
2023-01-08T01:00:26.882Z,101538.72
2023-01-08T01:03:03.682Z,101537.63
2023-01-08T01:05:34.591Z,101538.84
2023-01-08T01:08:05.307Z,101531.34
2023-01-08T01:10:36.225Z,101528.06
2023-01-08T01:13:13.242Z,101526.75
2023-01-08T01:15:43.640Z,101534.00
2023-01-08T01:18:14.192Z,101531.13
2023-01-08T01:20:45.211Z,101523.09
2023-01-08T01:23:15.701Z,101527.91
2023-01-08T01:25:46.883Z,101534.97
2023-01-08T01:28:17.455Z,101523.91
2023-01-08T01:30:56.125Z,101529.28
2023-01-08T01:33:27.095Z,101526.19
2023-01-08T01:36:02.361Z,101516.25
2023-01-08T01:38:33.758Z,101517.94
2023-01-08T01:41:04.437Z,101521.03
2023-01-08T01:43:44.722Z,101518.91
2023-01-08T01:46:24.801Z,101510.38
2023-01-08T01:48:59.501Z,101500.72
2023-01-08T01:51:33.264Z,101507.03
2023-01-08T01:54:05.697Z,101503.50
2023-01-08T01:56:36.509Z,101505.97
2023-01-08T01:59:07.626Z,101503.50
2023-01-08T02:01:38.468Z,101503.84
2023-01-08T02:04:14.630Z,101499.47
2023-01-08T02:07:08.785Z,101516.22
2023-01-08T02:09:51.392Z,101503.78
2023-01-08T02:12:40.769Z,101497.47
2023-01-08T02:15:19.945Z,101495.78
2023-01-08T02:18:10.644Z,101494.09
2023-01-08T02:21:07.313Z,101509.16
2023-01-08T02:24:07.271Z,101487.03
2023-01-08T02:26:38.878Z,101492.41
2023-01-08T02:29:15.800Z,101499.22
2023-01-08T02:31:46.611Z,101495.72
2023-01-08T02:34:16.972Z,101490.16
2023-01-08T02:36:58.634Z,101480.56
2023-01-08T02:39:50.860Z,101485.66
2023-01-08T02:43:05.915Z,101479.41
2023-01-08T02:45:48.833Z,101478.59
2023-01-08T02:48:28.500Z,101469.53
2023-01-08T02:51:34.315Z,101469.22
2023-01-08T02:54:08.502Z,101459.28
2023-01-08T02:56:44.528Z,101461.53
2023-01-08T02:59:18.967Z,101452.84
2023-01-08T03:01:49.961Z,101450.66
2023-01-08T03:04:24.405Z,101452.22
2023-01-08T03:07:04.225Z,101444.34
2023-01-08T03:09:34.703Z,101439.19
2023-01-08T03:12:13.015Z,101428.50
2023-01-08T03:15:11.111Z,101425.13
2023-01-08T03:17:46.187Z,101426.81
2023-01-08T03:20:23.212Z,101418.75
2023-01-08T03:22:57.403Z,101419.75
2023-01-08T03:25:30.044Z,101414.53
2023-01-08T03:28:04.975Z,101412.00
2023-01-08T03:30:40.000Z,101403.94
2023-01-08T03:33:12.132Z,101406.63
2023-01-08T03:35:43.840Z,101408.00
2023-01-08T03:38:26.983Z,101405.69
2023-01-08T03:41:01.549Z,101407.38
2023-01-08T03:43:31.895Z,101392.47
2023-01-08T03:46:05.388Z,101392.59
2023-01-08T03:48:37.245Z,101385.84
2023-01-08T03:51:10.912Z,101388.00
2023-01-08T03:53:41.221Z,101380.94
2023-01-08T03:56:14.834Z,101378.38
2023-01-08T03:58:45.449Z,101378.03
2023-01-08T04:01:15.805Z,101378.53
2023-01-08T04:03:46.593Z,101371.44
2023-01-08T04:06:17.157Z,101376.31
2023-01-08T04:08:50.712Z,101351.44
2023-01-08T04:11:21.335Z,101354.81
2023-01-08T04:13:51.837Z,101345.41
2023-01-08T04:16:25.459Z,101341.34
2023-01-08T04:18:55.799Z,101344.03
2023-01-08T04:21:29.411Z,101336.66
2023-01-08T04:24:00.704Z,101332.44
2023-01-08T04:26:31.582Z,101328.22
2023-01-08T04:29:05.075Z,101325.91
2023-01-08T04:31:36.052Z,101318.84
2023-01-08T04:34:06.412Z,101318.16
2023-01-08T04:36:37.600Z,101311.75
2023-01-08T04:39:09.389Z,101317.28
2023-01-08T04:41:40.284Z,101309.41
2023-01-08T04:44:11.225Z,101312.72
2023-01-08T04:46:42.418Z,101308.03
2023-01-08T04:49:16.675Z,101302.28
2023-01-08T04:51:49.548Z,101298.06
2023-01-08T04:54:19.941Z,101293.84
2023-01-08T04:56:53.526Z,101292.84
2023-01-08T04:59:24.112Z,101289.84
2023-01-08T05:01:55.002Z,101278.41
2023-01-08T05:04:30.546Z,101275.41
2023-01-08T05:07:01.465Z,101273.72
2023-01-08T05:09:31.873Z,101263.13
2023-01-08T05:12:02.345Z,101247.53
2023-01-08T05:14:32.595Z,101253.28
2023-01-08T05:17:03.214Z,101249.41
2023-01-08T05:19:34.517Z,101241.00
2023-01-08T05:22:04.975Z,101239.16
2023-01-08T05:24:35.499Z,101222.34
2023-01-08T05:27:08.727Z,101210.31
2023-01-08T05:29:39.109Z,101223.78
2023-01-08T05:32:19.817Z,101226.00
2023-01-08T05:34:51.462Z,101221.66
2023-01-08T05:37:21.925Z,101218.13
2023-01-08T05:39:52.197Z,101209.53
2023-01-08T05:42:22.606Z,101212.56
2023-01-08T05:44:53.152Z,101204.81
2023-01-08T05:47:23.721Z,101199.28
2023-01-08T05:49:54.975Z,101200.97
2023-01-08T05:52:28.803Z,101202.63
2023-01-08T05:55:01.071Z,101203.66
2023-01-08T05:57:31.389Z,101193.56
2023-01-08T06:00:01.766Z,101200.09
2023-01-08T06:02:41.573Z,101202.66
2023-01-08T06:05:11.980Z,101202.13
2023-01-08T06:07:42.305Z,101198.25
2023-01-08T06:10:12.690Z,101196.56
2023-01-08T06:12:43.230Z,101200.78
2023-01-08T06:15:14.446Z,101197.06
2023-01-08T06:17:45.188Z,101203.28
2023-01-08T06:20:18.298Z,101191.16
2023-01-08T06:23:00.269Z,101191.34
2023-01-08T06:25:31.029Z,101187.13
2023-01-08T06:28:01.840Z,101187.81
2023-01-08T06:30:32.875Z,101179.72
2023-01-08T06:33:06.132Z,101168.94
2023-01-08T06:35:36.483Z,101162.22
2023-01-08T06:38:07.042Z,101169.28
2023-01-08T06:40:37.300Z,101166.94
2023-01-08T06:43:08.199Z,101176.34
2023-01-08T06:45:39.308Z,101168.47
2023-01-08T06:48:15.083Z,101169.47
2023-01-08T06:50:45.376Z,101155.16
2023-01-08T06:53:16.240Z,101163.22
2023-01-08T06:55:46.922Z,101164.91
2023-01-08T06:58:22.533Z,101165.25
2023-01-08T07:00:56.354Z,101153.81
2023-01-08T07:03:27.184Z,101162.41
2023-01-08T07:05:59.200Z,101149.97
2023-01-08T07:08:29.890Z,101150.09
2023-01-08T07:11:05.004Z,101142.34
2023-01-08T07:13:35.828Z,101164.59
2023-01-08T07:16:11.087Z,101156.84
2023-01-08T07:18:42.071Z,101158.84
2023-01-08T07:21:17.315Z,101147.41
2023-01-08T07:24:03.747Z,101152.47
2023-01-08T07:26:37.170Z,101157.50
2023-01-08T07:29:08.309Z,101161.88
2023-01-08T07:31:41.137Z,101153.47
2023-01-08T07:34:15.371Z,101144.56
2023-01-08T07:36:45.993Z,101144.03
2023-01-08T07:39:17.077Z,101150.63
2023-01-08T07:41:47.838Z,101152.94
2023-01-08T07:44:18.941Z,101144.22
2023-01-08T07:46:52.593Z,101151.44
2023-01-08T07:49:22.945Z,101154.16
2023-01-08T07:51:53.730Z,101159.19
2023-01-08T07:54:24.600Z,101183.09
2023-01-08T07:56:57.949Z,101162.91
2023-01-08T07:59:28.679Z,101169.28
2023-01-08T08:01:59.394Z,101169.97
2023-01-08T08:04:30.051Z,101171.31
2023-01-08T08:07:00.635Z,101179.72
2023-01-08T08:09:31.300Z,101175.88
2023-01-08T08:12:21.962Z,101187.13
2023-01-08T08:14:52.258Z,101186.31
2023-01-08T08:17:23.066Z,101186.31
2023-01-08T08:19:54.293Z,101185.78
2023-01-08T08:22:34.337Z,101190.34
2023-01-08T08:25:08.174Z,101196.88
2023-01-08T08:27:38.685Z,101190.16
2023-01-08T08:30:13.289Z,101193.69
2023-01-08T08:32:44.208Z,101193.19
2023-01-08T08:35:24.020Z,101187.47
2023-01-08T08:37:55.965Z,101188.66
2023-01-08T08:40:27.473Z,101191.50
2023-01-08T08:43:01.788Z,101191.34
2023-01-08T08:45:32.515Z,101192.16
2023-01-08T08:48:03.380Z,101198.56
2023-01-08T08:50:33.665Z,101208.97
2023-01-08T08:53:06.110Z,101194.50
2023-01-08T08:55:36.520Z,101198.88
2023-01-08T08:58:16.089Z,101206.28
2023-01-08T09:00:46.712Z,101203.59
2023-01-08T09:03:18.371Z,101199.41
2023-01-08T09:05:49.512Z,101208.16
2023-01-08T09:08:20.113Z,101214.69
2023-01-08T09:10:51.296Z,101220.94
2023-01-08T09:13:24.864Z,101205.59
2023-01-08T09:15:55.765Z,101211.00
2023-01-08T09:18:26.777Z,101214.69
2023-01-08T09:20:57.281Z,101212.19
2023-01-08T09:23:28.226Z,101220.41
2023-01-08T09:26:07.298Z,101222.28
2023-01-08T09:28:38.996Z,101216.03
2023-01-08T09:31:09.465Z,101224.78
2023-01-08T09:33:40.446Z,101234.38
2023-01-08T09:36:13.212Z,101235.19
2023-01-08T09:38:44.875Z,101241.44
2023-01-08T09:41:26.540Z,101244.81
2023-01-08T09:43:57.860Z,101239.81
2023-01-08T09:46:29.670Z,101251.66
2023-01-08T09:49:07.489Z,101247.66
2023-01-08T09:51:41.245Z,101269.19
2023-01-08T09:54:21.224Z,101245.97
2023-01-08T09:56:52.499Z,101257.06
2023-01-08T09:59:23.081Z,101261.06
2023-01-08T10:01:54.821Z,101258.00
2023-01-08T10:04:30.550Z,101260.00
2023-01-08T10:07:23.917Z,101258.00
2023-01-08T10:09:55.512Z,101267.41
2023-01-08T10:12:35.261Z,101274.66
2023-01-08T10:15:08.624Z,101280.16
2023-01-08T10:17:58.933Z,101279.53
2023-01-08T10:20:30.364Z,101288.59
2023-01-08T10:23:21.575Z,101293.69
2023-01-08T10:26:03.346Z,101318.19
2023-01-08T10:28:38.976Z,101311.13
2023-01-08T10:31:17.380Z,101310.75
2023-01-08T10:33:51.182Z,101324.91
2023-01-08T10:36:28.517Z,101316.97
2023-01-08T10:39:02.477Z,101320.53
2023-01-08T10:41:33.498Z,101323.91
2023-01-08T10:44:06.080Z,101332.97
2023-01-08T10:46:51.768Z,101341.41
2023-01-08T10:49:28.031Z,101347.94
2023-01-08T10:52:23.432Z,101351.13
2023-01-08T10:54:54.713Z,101370.72
2023-01-08T10:57:33.595Z,101357.97
2023-01-08T11:00:08.156Z,101368.53
2023-01-08T11:02:40.102Z,101368.84
2023-01-08T11:05:12.241Z,101371.34
2023-01-08T11:07:44.193Z,101379.59
2023-01-08T11:10:25.930Z,101379.59
2023-01-08T11:12:58.734Z,101381.22
2023-01-08T11:15:30.812Z,101378.53
2023-01-08T11:18:08.671Z,101381.38
2023-01-08T11:20:40.839Z,101388.63
2023-01-08T11:23:25.176Z,101402.44
2023-01-08T11:26:21.038Z,101402.06
2023-01-08T11:29:19.730Z,101408.56
2023-01-08T11:32:16.921Z,101412.56
2023-01-08T11:35:00.967Z,101420.19
2023-01-08T11:37:40.493Z,101420.19
2023-01-08T11:40:20.475Z,101424.19
2023-01-08T11:43:31.832Z,101432.41
2023-01-08T11:46:36.923Z,101439.25
2023-01-08T11:49:35.072Z,101440.25
2023-01-08T11:52:31.702Z,101443.94
2023-01-08T11:55:23.442Z,101442.16
2023-01-08T11:58:17.080Z,101449.53
2023-01-08T12:01:25.009Z,101445.84
2023-01-08T12:04:10.907Z,101451.66
2023-01-08T12:06:56.635Z,101462.56
2023-01-08T12:09:48.330Z,101462.06
2023-01-08T12:12:48.608Z,101448.06
2023-01-08T12:15:45.325Z,101467.38
2023-01-08T12:18:37.732Z,101472.72
2023-01-08T12:21:35.964Z,101455.47
2023-01-08T12:24:45.028Z,101450.34
2023-01-08T12:27:58.362Z,101460.94
2023-01-08T12:30:47.825Z,101456.56
2023-01-08T12:33:31.811Z,101454.19
2023-01-08T12:36:10.897Z,101453.19
2023-01-08T12:38:46.064Z,101459.56
2023-01-08T12:41:30.187Z,101462.53
2023-01-08T12:44:13.129Z,101464.22
2023-01-08T12:46:49.987Z,101465.38
2023-01-08T12:49:31.295Z,101458.84
2023-01-08T12:52:09.841Z,101472.44
2023-01-08T12:55:12.369Z,101475.97
2023-01-08T12:58:20.756Z,101479.34
2023-01-08T13:01:05.083Z,101491.69
2023-01-08T13:03:35.886Z,101489.16
2023-01-08T13:06:15.348Z,101482.94
2023-01-08T13:08:54.351Z,101490.28
2023-01-08T13:11:39.306Z,101495.66
2023-01-08T13:14:12.591Z,101487.88
2023-01-08T13:16:44.525Z,101492.84
2023-01-08T13:19:29.745Z,101483.00
2023-01-08T13:22:02.545Z,101489.75
2023-01-08T13:24:38.888Z,101493.44
2023-01-08T13:27:18.326Z,101498.28
2023-01-08T13:29:50.078Z,101495.66
2023-01-08T13:32:39.838Z,101499.16
2023-01-08T13:35:19.175Z,101512.47
2023-01-08T13:38:06.435Z,101504.00
2023-01-08T13:40:46.912Z,101510.75
2023-01-08T13:43:23.253Z,101504.00
2023-01-08T13:45:59.949Z,101505.09
2023-01-08T13:48:37.343Z,101503.09
2023-01-08T13:51:08.422Z,101499.97
2023-01-08T13:53:43.724Z,101503.66
2023-01-08T13:56:15.655Z,101510.41
2023-01-08T13:58:55.685Z,101509.84
2023-01-08T14:01:26.155Z,101509.56
2023-01-08T14:03:59.626Z,101515.22
2023-01-08T14:06:30.237Z,101495.44
2023-01-08T14:09:06.282Z,101511.53
2023-01-08T14:11:42.949Z,101502.66
2023-01-08T14:14:24.649Z,101505.03
2023-01-08T14:16:56.466Z,101505.47
2023-01-08T14:19:28.232Z,101505.75
2023-01-08T14:22:00.121Z,101511.47
2023-01-08T14:24:30.882Z,101505.94
2023-01-08T14:27:01.929Z,101500.84
2023-01-08T14:29:35.414Z,101500.56
2023-01-08T14:32:18.019Z,101497.41
2023-01-08T14:34:50.457Z,101494.38
2023-01-08T14:37:22.012Z,101490.97
2023-01-08T14:39:55.079Z,101487.03
2023-01-08T14:42:43.759Z,101486.19
2023-01-08T14:45:16.991Z,101490.28
2023-01-08T14:47:52.070Z,101488.88
2023-01-08T14:50:31.463Z,101479.44
2023-01-08T14:53:09.475Z,101482.66
2023-01-08T14:55:46.162Z,101482.53
2023-01-08T14:58:27.964Z,101486.19
2023-01-08T15:01:05.056Z,101490.47
2023-01-08T15:03:46.450Z,101490.47
2023-01-08T15:06:31.965Z,101492.16
2023-01-08T15:09:03.519Z,101485.22
2023-01-08T15:11:36.017Z,101486.50
2023-01-08T15:14:15.673Z,101490.75
2023-01-08T15:16:46.329Z,101496.13
2023-01-08T15:19:24.155Z,101483.69
2023-01-08T15:21:56.790Z,101489.06
2023-01-08T15:24:34.047Z,101488.50
2023-01-08T15:27:11.084Z,101494.72
2023-01-08T15:29:54.540Z,101498.41
2023-01-08T15:32:25.865Z,101493.72
2023-01-08T15:34:56.477Z,101493.72
2023-01-08T15:37:27.834Z,101486.69
2023-01-08T15:39:58.926Z,101479.75
2023-01-08T15:42:50.910Z,101475.38
2023-01-08T15:45:24.415Z,101469.88
2023-01-08T15:47:55.814Z,101473.69
2023-01-08T15:50:28.294Z,101480.59
2023-01-08T15:52:58.820Z,101465.50
2023-01-08T15:55:29.507Z,101470.00
2023-01-08T15:58:01.429Z,101458.44
2023-01-08T16:00:34.865Z,101464.22
2023-01-08T16:03:08.122Z,101463.09
2023-01-08T16:05:38.723Z,101467.31
2023-01-08T16:08:09.424Z,101462.81
2023-01-08T16:10:40.259Z,101460.81
2023-01-08T16:13:12.281Z,101453.06
2023-01-08T16:15:43.138Z,101461.13
2023-01-08T16:18:13.691Z,101466.50
2023-01-08T16:20:47.291Z,101476.22
2023-01-08T16:23:17.820Z,101477.50
2023-01-08T16:25:48.275Z,101472.97
2023-01-08T16:28:18.857Z,101472.00
2023-01-08T16:30:53.141Z,101474.66
2023-01-08T16:33:24.719Z,101466.50
2023-01-08T16:36:07.080Z,101475.66
2023-01-08T16:38:38.489Z,101460.00
2023-01-08T16:41:08.746Z,101449.28
2023-01-08T16:43:43.900Z,101440.38
2023-01-08T16:46:19.800Z,101446.72
2023-01-08T16:48:50.096Z,101438.25
2023-01-08T16:51:22.159Z,101434.88
2023-01-08T16:53:52.667Z,101434.19
2023-01-08T16:56:23.390Z,101436.84
2023-01-08T16:58:54.037Z,101433.31
2023-01-08T17:01:24.885Z,101425.53
2023-01-08T17:03:55.561Z,101431.50
2023-01-08T17:06:27.129Z,101425.13
2023-01-08T17:09:00.770Z,101425.53
2023-01-08T17:11:33.162Z,101424.69
2023-01-08T17:14:03.680Z,101418.75
2023-01-08T17:16:34.317Z,101413.00
2023-01-08T17:19:05.195Z,101404.69
2023-01-08T17:21:37.173Z,101407.50
2023-01-08T17:24:08.567Z,101404.69
2023-01-08T17:26:39.157Z,101399.34
2023-01-08T17:29:10.143Z,101393.28
2023-01-08T17:31:40.810Z,101381.53
2023-01-08T17:34:15.075Z,101366.28
2023-01-08T17:36:45.419Z,101356.41
2023-01-08T17:39:19.653Z,101356.72
2023-01-08T17:42:07.990Z,101361.38
2023-01-08T17:44:39.965Z,101350.25
2023-01-08T17:47:11.913Z,101355.91
2023-01-08T17:49:42.542Z,101355.06
2023-01-08T17:52:12.794Z,101358.28
2023-01-08T17:54:43.342Z,101355.91
2023-01-08T17:57:13.588Z,101352.50
2023-01-08T17:59:45.998Z,101355.34
2023-01-08T18:02:18.226Z,101358.16
2023-01-08T18:04:49.322Z,101357.47
2023-01-08T18:07:28.568Z,101353.97
2023-01-08T18:09:59.041Z,101344.06
2023-01-08T18:12:38.742Z,101343.38
2023-01-08T18:15:10.339Z,101350.72
2023-01-08T18:17:41.089Z,101348.31
2023-01-08T18:20:15.079Z,101338.47
2023-01-08T18:22:47.065Z,101344.94
2023-01-08T18:25:17.748Z,101343.25
2023-01-08T18:27:48.047Z,101350.59
2023-01-08T18:30:20.480Z,101346.09
2023-01-08T18:32:53.681Z,101339.88
2023-01-08T18:35:24.665Z,101343.53
2023-01-08T18:37:56.532Z,101345.53
2023-01-08T18:40:27.564Z,101334.78
2023-01-08T18:43:00.787Z,101333.81
2023-01-08T18:45:36.176Z,101330.44
2023-01-08T18:48:10.511Z,101343.81
2023-01-08T18:50:41.693Z,101340.44
2023-01-08T18:53:12.276Z,101344.13
2023-01-08T18:55:42.571Z,101344.41
2023-01-08T18:58:13.480Z,101339.22
2023-01-08T19:00:43.982Z,101340.03
2023-01-08T19:03:14.289Z,101332.00
2023-01-08T19:05:47.904Z,101334.84
2023-01-08T19:08:18.344Z,101335.91
2023-01-08T19:10:48.712Z,101343.25
2023-01-08T19:13:20.142Z,101350.31
2023-01-08T19:15:50.878Z,101343.25
2023-01-08T19:18:23.741Z,101350.59
2023-01-08T19:20:54.359Z,101359.50
2023-01-08T19:23:25.258Z,101363.00
2023-01-08T19:25:56.649Z,101357.66
2023-01-08T19:28:27.114Z,101346.22
2023-01-08T19:30:58.783Z,101352.56
2023-01-08T19:33:30.060Z,101355.41
2023-01-08T19:36:09.445Z,101355.97
2023-01-08T19:38:44.038Z,101349.19
2023-01-08T19:41:33.119Z,101346.81
2023-01-08T19:44:03.379Z,101344.13
2023-01-08T19:46:33.850Z,101345.97
2023-01-08T19:49:07.198Z,101351.47
2023-01-08T19:51:40.684Z,101349.78
2023-01-08T19:54:13.112Z,101352.44
2023-01-08T19:56:45.680Z,101349.47
2023-01-08T19:59:16.498Z,101349.06
2023-01-08T20:01:47.183Z,101338.34
2023-01-08T20:04:20.875Z,101343.56
2023-01-08T20:06:53.500Z,101339.34
2023-01-08T20:09:24.069Z,101346.38
2023-01-08T20:11:54.995Z,101347.25
2023-01-08T20:14:28.094Z,101347.09
2023-01-08T20:16:58.377Z,101346.38
2023-01-08T20:19:32.292Z,101348.06
2023-01-08T20:22:08.787Z,101356.41
2023-01-08T20:24:39.835Z,101354.72
2023-01-08T20:27:19.452Z,101344.97
2023-01-08T20:29:49.909Z,101346.66
2023-01-08T20:32:23.314Z,101350.34
2023-01-08T20:34:54.084Z,101354.00
2023-01-08T20:37:27.250Z,101353.31
2023-01-08T20:39:57.761Z,101348.66
2023-01-08T20:42:33.937Z,101355.97
2023-01-08T20:45:05.819Z,101355.16
2023-01-08T20:47:38.831Z,101355.97
2023-01-08T20:50:19.538Z,101358.81
2023-01-08T20:52:52.143Z,101354.44
2023-01-08T20:55:25.907Z,101362.66
2023-01-08T20:57:56.207Z,101359.97
2023-01-08T21:00:26.879Z,101361.94
2023-01-08T21:03:00.374Z,101365.59
2023-01-08T21:05:31.145Z,101366.44
2023-01-08T21:08:01.455Z,101365.91
2023-01-08T21:10:32.163Z,101371.25
2023-01-08T21:13:03.144Z,101365.91
2023-01-08T21:15:45.854Z,101366.19
2023-01-08T21:18:17.201Z,101372.25
2023-01-08T21:20:47.628Z,101369.56
2023-01-08T21:23:18.305Z,101366.19
2023-01-08T21:25:49.989Z,101359.13
2023-01-08T21:28:21.010Z,101369.97
2023-01-08T21:30:51.518Z,101363.06
2023-01-08T21:33:23.447Z,101369.25
2023-01-08T21:35:53.977Z,101366.75
2023-01-08T21:38:34.292Z,101368.28
2023-01-08T21:41:09.785Z,101363.06
2023-01-08T21:43:58.432Z,101373.09
2023-01-08T21:46:34.509Z,101370.41
2023-01-08T21:49:07.890Z,101367.03
2023-01-08T21:51:56.311Z,101367.03
2023-01-08T21:54:26.866Z,101377.16
2023-01-08T21:57:03.289Z,101365.59
2023-01-08T21:59:34.809Z,101370.97
2023-01-08T22:02:07.126Z,101379.84
2023-01-08T22:04:38.118Z,101379.13
2023-01-08T22:07:08.926Z,101379.00
2023-01-08T22:09:41.090Z,101387.31
2023-01-08T22:12:11.684Z,101380.53
2023-01-08T22:14:42.186Z,101378.56
2023-01-08T22:17:12.822Z,101381.53
2023-01-08T22:19:43.599Z,101385.44
2023-01-08T22:22:27.172Z,101380.91
2023-01-08T22:24:57.692Z,101387.88
2023-01-08T22:27:32.255Z,101386.19
2023-01-08T22:30:07.200Z,101395.19
2023-01-08T22:32:39.163Z,101393.22
2023-01-08T22:35:09.988Z,101401.09
2023-01-08T22:37:41.458Z,101399.13
2023-01-08T22:40:12.741Z,101406.34
2023-01-08T22:42:43.300Z,101410.13
2023-01-08T22:45:13.896Z,101413.50
2023-01-08T22:47:44.439Z,101421.44
2023-01-08T22:50:14.977Z,101419.84
2023-01-08T22:52:45.206Z,101423.38
2023-01-08T22:55:16.911Z,101434.09
2023-01-08T22:57:47.420Z,101435.09
2023-01-08T23:00:18.405Z,101427.06
2023-01-08T23:02:48.966Z,101439.47
2023-01-08T23:05:19.411Z,101442.13
2023-01-08T23:07:49.923Z,101436.78
2023-01-08T23:10:20.439Z,101449.19
2023-01-08T23:12:52.273Z,101455.53
2023-01-08T23:15:23.940Z,101455.25
2023-01-08T23:17:54.296Z,101456.94
2023-01-08T23:20:25.919Z,101462.56
2023-01-08T23:22:56.588Z,101465.97
2023-01-08T23:25:28.879Z,101457.94
2023-01-08T23:27:59.740Z,101464.28
2023-01-08T23:30:32.391Z,101474.00
2023-01-08T23:33:03.243Z,101468.50
2023-01-08T23:35:33.630Z,101477.50
2023-01-08T23:38:04.534Z,101471.88
2023-01-08T23:40:37.513Z,101477.66
2023-01-08T23:43:08.565Z,101473.88
2023-01-08T23:45:41.780Z,101473.03
2023-01-08T23:48:12.546Z,101476.00
2023-01-08T23:50:43.204Z,101467.69
2023-01-08T23:53:15.968Z,101467.09
2023-01-08T23:55:49.833Z,101477.69
2023-01-08T23:58:20.387Z,101468.69
